Latest Weather Observations for Rolleston Airport

IDQ60801

Issued at 3:02 pm EST Friday 27 March 2015 (issued every 30 minutes, with the page automatically refreshed every 10 minutes)

About weather observations | Map of weather stations | Latest weather observations for QLD | Other Formats
Station Details ID: 035129 Name: ROLLESTON AIRPORT Lat: -24.46 Lon: 148.63 Height: 219.45 m
Data from the previous 72 hours. | See also: Recent months at Rolleston Airport
Date/Time
EST
Temp
°C
App
Temp
°C
Dew
Point
Rel
Hum
%
Delta-T
°C
Wind Press
QNH
hPa
Press
MSL
hPa
Rain
since 9 am
mm
Dir
 
Spd
km/h
Gust
km/h
Spd
kts
Gust
kts
27/03:00pm 30.4 29.3 13.2 35 10.3 S 11 20 6 11 1016.7 1015.4 0.0
27/02:30pm 30.2 29.2 13.5 36 10.1 S 11 17 6 9 1017.0 1015.7 0.0
27/02:00pm 29.4 27.8 12.8 36 9.9 S 13 20 7 11 1017.4 1016.1 0.0
27/01:30pm 29.1 27.0 12.5 36 9.8 SSE 15 22 8 12 1017.9 1016.6 0.0
27/01:00pm 28.8 27.6 12.7 37 9.5 S 11 19 6 10 1018.3 1017.0 0.0
27/12:30pm 28.1 26.8 12.5 38 9.2 SSE 11 20 6 11 1018.9 1017.6 0.0
27/12:00pm 27.6 26.4 11.6 37 9.2 S 9 17 5 9 1019.5 1018.3 0.0
27/11:30am 27.1 24.8 10.3 35 9.5 SSE 13 20 7 11 1020.2 1019.0 0.0
27/11:00am 26.3 23.4 8.3 32 9.8 SSE 13 22 7 12 1020.7 1019.5 0.0
27/10:30am 25.4 21.7 8.0 33 9.4 S 17 24 9 13 1021.0 1019.8 0.0
27/10:00am 24.9 21.4 8.8 36 8.7 SSE 17 22 9 12 1021.2 1020.0 0.0
27/09:30am 24.2 21.5 9.0 38 8.3 S 13 20 7 11 1021.3 1020.1 0.0
27/09:00am 23.3 20.3 9.3 41 7.6 SSE 15 20 8 11 1021.3 1020.1 4.4
27/08:30am 22.3 20.0 9.1 43 7.1 S 11 17 6 9 1021.2 1020.0 4.4
27/08:00am 21.7 19.6 9.6 46 6.6 SSE 11 17 6 9 1020.9 1019.7 4.4
27/07:30am 21.4 20.8 12.3 56 5.2 S 7 15 4 8 1020.4 1019.2 4.4
27/07:00am 21.1 20.9 13.5 62 4.4 S 7 13 4 7 1020.1 1018.9 4.4
27/06:30am 21.0 21.5 15.5 71 3.3 S 7 9 4 5 1019.8 1018.6 4.4
27/06:00am 20.9 22.6 18.1 84 1.8 S 6 9 3 5 1019.4 1018.2 4.4
27/05:30am 20.9 22.8 19.0 89 1.2 SSE 7 9 4 5 1018.9 1017.6 4.4
27/05:00am 21.2 22.7 18.9 87 1.5 SE 9 11 5 6 1018.6 1017.3 4.4
27/04:30am 21.4 22.9 18.0 81 2.1 S 7 13 4 7 1018.4 1017.1 4.4
27/04:00am 21.8 22.9 17.2 75 2.8 S 7 9 4 5 1018.1 1016.8 4.4
27/03:30am 22.1 23.2 16.6 71 3.4 SSE 6 7 3 4 1018.0 1016.7 4.4
27/03:00am 21.6 22.8 16.8 74 2.9 SSW 6 7 3 4 1018.1 1016.8 4.4
27/02:30am 22.0 22.7 16.1 69 3.6 S 7 11 4 6 1018.3 1017.0 4.4
27/02:00am 22.5 21.4 16.3 68 3.8 S 17 26 9 14 1018.4 1017.1 4.4
27/01:30am 22.7 23.1 19.1 80 2.3 SSE 15 24 8 13 1018.6 1017.3 4.4
27/01:00am 22.6 22.9 20.3 87 1.5 SE 19 26 10 14 1018.9 1017.6 4.4
27/12:30am 22.9 24.0 20.4 86 1.6 SSE 15 22 8 12 1018.9 1017.6 4.4
27/12:00am 22.9 24.6 21.0 89 1.2 SSE 13 20 7 11 1018.9 1017.6 4.4
 
Date/Time
EST
Temp
°C
App
Temp
°C
Dew
Point
Rel
Hum
%
Delta-T
°C
Wind Press
QNH
hPa
Press
MSL
hPa
Rain
since 9 am
mm
Dir
 
Spd
km/h
Gust
km/h
Spd
kts
Gust
kts
26/11:30pm 23.5 26.2 21.4 88 1.4 S 9 13 5 7 1019.0 1017.7 4.4
26/11:00pm 23.7 27.1 22.0 90 1.1 S 7 13 4 7 1018.9 1017.6 4.4
26/10:30pm 23.9 27.5 22.0 89 1.3 SSW 6 11 3 6 1019.2 1018.0 4.4
26/10:00pm 23.7 27.1 21.6 88 1.4 WSW 6 9 3 5 1019.2 1018.0 4.4
26/09:30pm 23.3 26.3 21.2 88 1.4 SSW 7 11 4 6 1019.0 1017.7 3.0
26/09:00pm 23.7 25.9 20.4 82 2.2 SW 9 15 5 8 1018.6 1017.3 2.2
26/08:30pm 23.4 26.5 21.5 89 1.3 SSE 7 11 4 6 1018.0 1016.7 2.2
26/08:00pm 23.1 24.8 20.2 84 1.9 S 11 19 6 10 1017.4 1016.1 2.2
26/07:30pm 24.4 24.7 19.7 75 3.1 SSW 17 30 9 16 1017.7 1016.4 0.2
26/07:00pm 26.1 24.6 20.9 73 3.4 SSE 30 39 16 21 1017.5 1016.2 0.0
26/06:30pm 28.3 28.6 19.5 59 5.8 S 17 32 9 17 1016.7 1015.4 0.0
26/06:00pm 30.8 32.5 20.1 53 7.1 NE 11 17 6 9 1015.4 1014.2 0.0
26/05:30pm 31.6 32.6 20.2 50 7.6 NE 15 20 8 11 1015.0 1013.7 0.0
26/05:00pm 32.7 32.8 19.9 46 8.5 NE 19 24 10 13 1014.7 1013.4 0.0
26/04:30pm 33.9 36.7 18.8 41 10.0 N 2 7 1 4 1014.3 1013.0 0.0
26/04:00pm 33.4 34.8 18.7 41 9.7 SE 9 15 5 8 1014.3 1013.0 0.0
26/03:30pm 33.6 35.3 19.3 43 9.5 SE 9 17 5 9 1014.5 1013.2 0.0
26/03:00pm 33.5 35.7 19.2 43 9.5 NNE 6 11 3 6 1014.8 1013.5 0.0
26/02:30pm 33.9 36.8 19.9 43 9.4 NW 4 9 2 5 1015.2 1014.0 0.0
26/02:00pm 33.4 35.9 19.8 44 9.1 NW 6 9 3 5 1015.4 1014.2 0.0
26/01:30pm 33.0 35.3 19.8 45 8.8 N 7 13 4 7 1015.8 1014.6 0.0
26/01:00pm 32.0 34.4 18.9 45 8.6 NW 4 9 2 5 1016.5 1015.3 0.0
26/12:30pm 32.5 35.7 19.7 46 8.5 N 2 11 1 6 1017.1 1015.8 0.0
26/12:00pm 32.0 34.2 19.6 47 8.2 N 7 13 4 7 1017.7 1016.4 0.0
26/11:30am 31.1 33.4 19.4 49 7.7 NNW 6 11 3 6 1018.2 1016.9 0.0
26/11:00am 30.6 32.1 19.0 50 7.6 N 9 15 5 8 1018.5 1017.2 0.0
26/10:30am 29.9 31.8 19.0 52 7.1 NNW 7 13 4 7 1018.8 1017.5 0.0
26/10:00am 29.5 30.6 18.9 53 6.9 NNE 11 15 6 8 1019.0 1017.7 0.0
26/09:30am 28.6 30.1 19.0 56 6.3 N 9 17 5 9 1019.2 1018.0 0.0
26/09:00am 28.1 29.7 19.1 58 5.8 N 9 15 5 8 1019.1 1017.8 0.0
26/08:30am 27.0 28.4 19.6 64 4.8 NNE 11 17 6 9 1018.9 1017.6 0.0
26/08:00am 26.3 28.2 19.7 67 4.3 NNE 9 13 5 7 1018.6 1017.3 0.0
26/07:30am 25.0 27.4 20.0 74 3.3 NNE 7 11 4 6 1018.3 1017.0 0.0
26/07:00am 23.9 27.8 20.4 81 2.3 CALM 0 0 0 0 1018.0 1016.7 0.0
26/06:30am 23.1 26.9 20.1 83 2.0 CALM 0 0 0 0 1017.9 1016.6 0.0
26/06:00am 23.1 26.3 20.6 86 1.6 N 4 4 2 2 1017.5 1016.2 0.0
26/05:30am 23.1 26.9 20.2 84 1.9 CALM 0 0 0 0 1017.2 1015.9 0.0
26/05:00am 23.4 27.2 20.2 82 2.1 CALM 0 0 0 0 1016.7 1015.4 0.0
26/04:30am 23.4 27.3 20.3 83 2.0 CALM 0 0 0 0 1016.2 1015.0 0.0
26/04:00am 23.7 27.7 20.6 83 2.0 CALM 0 2 0 1 1015.9 1014.7 0.0
26/03:30am 23.2 26.4 20.5 85 1.8 NNW 4 4 2 2 1015.7 1014.5 0.0
26/03:00am 24.6 28.3 20.7 79 2.6 N 2 4 1 2 1015.6 1014.4 0.0
26/02:30am 24.9 28.1 20.4 76 3.0 N 4 4 2 2 1015.7 1014.5 0.0
26/02:00am 25.3 29.2 21.2 78 2.7 N 2 2 1 1 1015.6 1014.4 0.0
26/01:30am 24.6 27.6 20.9 80 2.4 NNW 6 9 3 5 1015.8 1014.6 0.0
26/01:00am 25.2 29.2 21.3 79 2.6 NW 2 4 1 2 1015.7 1014.5 0.0
26/12:30am 25.4 30.0 21.7 80 2.5 CALM 0 2 0 1 1015.7 1014.5 0.0
26/12:00am 25.2 29.6 21.3 79 2.6 CALM 0 0 0 0 1015.7 1014.5 0.0
 
Date/Time
EST
Temp
°C
App
Temp
°C
Dew
Point
Rel
Hum
%
Delta-T
°C
Wind Press
QNH
hPa
Press
MSL
hPa
Rain
since 9 am
mm
Dir
 
Spd
km/h
Gust
km/h
Spd
kts
Gust
kts
25/11:30pm 25.9 30.2 21.1 75 3.2 CALM 0 0 0 0 1015.6 1014.4 0.0
25/11:00pm 26.3 30.0 20.8 71 3.6 SW 2 4 1 2 1015.6 1014.4 0.0
25/10:30pm 27.1 30.1 20.9 69 4.1 NE 6 9 3 5 1015.6 1014.4 0.0
25/10:00pm 27.9 30.4 21.0 66 4.6 NE 9 15 5 8 1015.5 1014.3 0.0
25/09:30pm 28.1 30.3 21.1 65 4.7 NE 11 15 6 8 1015.6 1014.4 0.0
25/09:00pm 28.6 30.4 21.1 64 5.0 ENE 13 19 7 10 1015.4 1014.2 0.0
25/08:30pm 28.6 30.4 21.1 64 5.0 ENE 13 17 7 9 1015.1 1013.9 0.0
25/08:00pm 29.0 30.6 20.7 61 5.5 ENE 13 17 7 9 1014.9 1013.6 0.0
25/07:30pm 29.4 30.7 19.4 55 6.6 ENE 11 19 6 10 1014.4 1013.1 0.0
25/07:00pm 30.0 32.0 19.1 52 7.1 ENE 7 9 4 5 1013.9 1012.6 0.0
25/06:30pm 31.2 32.8 19.2 48 7.9 ENE 9 9 5 5 1013.6 1012.3 0.0
25/06:00pm 32.4 35.2 19.6 46 8.5 NE 4 6 2 3 1013.4 1012.1 0.0
25/05:30pm 33.2 34.8 18.2 41 9.8 NNE 7 9 4 5 1013.0 1011.7 0.0
25/05:00pm 33.8 35.0 18.3 39 10.2 NE 9 15 5 8 1012.8 1011.5 0.0
25/04:30pm 33.2 35.0 18.2 41 9.8 NNW 6 7 3 4 1012.9 1011.6 0.0
25/04:00pm 33.8 35.6 18.7 40 9.9 NNW 7 11 4 6 1013.0 1011.7 0.0
25/03:30pm 34.0 35.3 18.5 40 10.2 WNW 9 17 5 9 1013.1 1011.8 0.0
25/03:00pm 34.1 35.6 19.0 41 10.0 WNW 9 17 5 9 1013.3 1012.0 0.0
25/02:30pm 33.5 33.8 18.0 39 10.1 NW 13 22 7 12 1013.4 1012.1 0.0
25/02:00pm 33.7 34.7 19.4 43 9.5 NW 13 17 7 9 1013.8 1012.5 0.0
25/01:30pm 32.6 33.3 18.8 44 9.1 NW 13 20 7 11 1014.1 1012.8 0.0
25/01:00pm 33.2 33.9 19.7 45 9.0 WNW 15 22 8 12 1014.5 1013.2 0.0
25/12:30pm 32.3 34.4 20.9 51 7.7 NNW 11 17 6 9 1015.0 1013.7 0.0
25/12:00pm 31.6 32.8 19.9 50 7.8 NNW 13 20 7 11 1015.6 1014.4 0.0
25/11:30am 31.3 33.1 21.2 55 6.8 NNE 13 20 7 11 1016.0 1014.8 0.0
25/11:00am 31.3 34.2 21.8 57 6.5 NNW 9 17 5 9 1016.4 1015.2 0.0
25/10:30am 29.5 32.1 20.1 57 6.2 N 6 15 3 8 1016.8 1015.5 0.0
25/10:00am 28.5 30.2 20.2 60 5.5 N 11 20 6 11 1017.1 1015.8 0.0
25/09:30am 27.6 30.2 20.4 65 4.8 N 7 15 4 8 1017.3 1016.0 0.0
25/09:00am 26.6 28.8 19.5 65 4.6 N 7 13 4 7 1017.4 1016.1 0.0
25/08:30am 25.6 27.8 19.7 70 3.8 N 7 13 4 7 1017.3 1016.0 0.0
25/08:00am 24.9 27.1 19.1 70 3.7 N 6 9 3 5 1017.1 1015.8 0.0
25/07:30am 24.0 26.9 19.1 74 3.2 N 2 6 1 3 1016.8 1015.5 0.0
25/07:00am 22.6 26.0 19.4 82 2.1 CALM 0 0 0 0 1016.4 1015.2 0.0
25/06:30am 21.4 23.8 18.8 85 1.6 SE 4 4 2 2 1016.1 1014.9 0.0
25/06:00am 21.8 24.6 18.8 83 1.9 N 2 2 1 1 1015.5 1014.3 0.0
25/05:30am 22.1 24.8 18.7 81 2.2 N 2 4 1 2 1015.2 1014.0 0.0
25/05:00am 22.6 24.5 18.6 78 2.5 N 6 9 3 5 1014.7 1013.4 0.0
25/04:30am 22.5 24.5 18.7 79 2.4 NNW 6 9 3 5 1014.4 1013.1 0.0
25/04:00am 23.3 25.3 18.8 76 2.9 N 6 7 3 4 1014.1 1012.8 0.0
25/03:30am 23.0 25.1 19.0 78 2.6 NNW 6 7 3 4 1014.0 1012.7 0.0
25/03:00am 23.5 25.8 19.4 78 2.6 NNW 6 7 3 4 1013.9 1012.6 0.0
25/02:30am 23.8 26.9 19.5 77 2.8 N 2 4 1 2 1013.9 1012.6 0.0
25/02:00am 23.4 26.5 19.5 79 2.5 NNW 2 6 1 3 1014.0 1012.7 0.0
25/01:30am 23.8 26.3 19.9 79 2.5 N 6 9 3 5 1013.8 1012.5 0.0
25/01:00am 23.4 27.1 20.0 81 2.2 CALM 0 0 0 0 1014.0 1012.7 0.0
25/12:30am 23.6 26.9 19.9 80 2.4 N 2 2 1 1 1014.0 1012.7 0.0
25/12:00am 23.7 26.2 20.2 81 2.3 N 7 7 4 4 1014.0 1012.7 0.0
 
Date/Time
EST
Temp
°C
App
Temp
°C
Dew
Point
Rel
Hum
%
Delta-T
°C
Wind Press
QNH
hPa
Press
MSL
hPa
Rain
since 9 am
mm
Dir
 
Spd
km/h
Gust
km/h
Spd
kts
Gust
kts
24/11:30pm 23.3 25.9 20.1 82 2.1 NNW 6 9 3 5 1014.1 1012.8 0.0
24/11:00pm 24.2 27.0 19.7 76 2.9 N 4 4 2 2 1014.2 1012.9 0.0
24/10:30pm 25.4 28.0 20.0 72 3.5 NE 6 7 3 4 1014.3 1013.0 0.0
24/10:00pm 25.9 28.2 19.8 69 4.0 ENE 7 9 4 5 1014.5 1013.2 0.0
24/09:30pm 26.4 28.3 19.8 67 4.3 NE 9 11 5 6 1014.5 1013.2 0.0
24/09:00pm 26.8 28.8 19.9 66 4.5 ENE 9 13 5 7 1014.5 1013.2 0.0
24/08:30pm 26.9 29.3 20.0 66 4.5 NE 7 9 4 5 1014.6 1013.3 0.0
24/08:00pm 27.8 30.1 19.8 61 5.3 NE 7 9 4 5 1014.4 1013.1 0.0
24/07:30pm 28.3 31.2 19.8 60 5.6 NE 4 6 2 3 1014.1 1012.8 0.0
24/07:00pm 28.8 31.0 19.7 58 6.0 NE 7 7 4 4 1013.8 1012.5 0.0
24/06:30pm 28.9 31.2 19.8 58 6.0 NE 7 9 4 5 1013.5 1012.2 0.0
24/06:00pm 30.0 32.0 19.1 52 7.1 NE 7 9 4 5 1013.4 1012.1 0.0
24/05:30pm 31.3 33.4 19.3 49 7.9 NE 7 11 4 6 1013.2 1011.9 0.0
24/05:00pm 30.9 33.3 18.9 48 7.9 NNE 4 11 2 6 1013.0 1011.7 0.0
24/04:30pm 31.0 33.0 18.7 48 8.0 NE 6 9 3 5 1013.2 1011.9 0.0
24/04:00pm 30.8 32.7 18.5 47 8.0 NE 6 9 3 5 1013.2 1011.9 0.0
24/03:30pm 30.7 32.9 18.4 47 8.0 N 4 7 2 4 1013.3 1012.0 0.0

Other Formats:

Comma delimited format used in spreadsheet applications
http://www.bom.gov.au/fwo/IDQ60801/IDQ60801.94396.axf

JavaScript Object Notation format (JSON) in row-major order
http://www.bom.gov.au/fwo/IDQ60801/IDQ60801.94396.json